Time;durP1;ratioP1;P1;durP2;ratioP2;P2;SDS_P1;SDS_P2;PMS_P1;PMS_P2;Temp;Humidity;BMP_temperature;BMP_pressure;BME280_temperature;BME280_humidity;BME280_pressure;Samples;Min_cycle;Max_cycle;Signal;HPM_P1;HPM_P2
2021/11/12 00:02:10;;;;;;;38.67;26.85;;;;;;;0.07;97.28;101569.72;682240;28;4850;-51
2021/11/12 00:02:13;;;;;;;35.63;26.73;;;;;;;0.12;97.03;101576.00;683194;28;1408;-52
2021/11/12 00:04:03;;;;;;;36.22;26.05;;;;;;;0.23;96.97;101580.00;679549;28;2195;-52
2021/11/12 00:04:36;;;;;;;35.70;25.48;;;;;;;0.25;96.43;101574.94;681059;28;5167;-52
2021/11/12 00:11:51;;;;;;;36.15;26.45;;;;;;;0.18;96.05;101576.31;681738;28;1706;-53
2021/11/12 00:12:57;;;;;;;36.75;25.50;;;;;;;0.06;96.50;101584.28;684153;28;1196;-51
2021/11/12 00:13:18;;;;;;;36.25;26.10;;;;;;;-0.07;95.87;101580.16;685385;28;4330;-51
2021/11/12 00:13:41;;;;;;;36.97;26.58;;;;;;;-0.10;96.47;101585.13;683502;28;1289;-55
2021/11/12 00:14:01;;;;;;;36.15;25.60;;;;;;;-0.04;96.82;101582.91;683610;28;2095;-52
2021/11/12 00:14:25;;;;;;;37.00;26.03;;;;;;;-0.06;96.74;101587.06;684593;28;1266;-51
2021/11/12 00:14:51;;;;;;;37.20;26.75;;;;;;;-0.12;96.80;101576.47;684179;28;3894;-51
2021/11/12 00:15:12;;;;;;;36.58;26.60;;;;;;;-0.07;96.67;101581.84;683165;28;1285;-51
2021/11/12 00:15:35;;;;;;;35.58;25.92;;;;;;;-0.05;96.95;101580.25;681620;28;1465;-51
2021/11/12 00:15:58;;;;;;;37.22;26.92;;;;;;;-0.04;96.81;101579.47;682548;28;989;-53
2021/11/12 00:16:25;;;;;;;36.15;26.58;;;;;;;-0.03;96.89;101579.53;680979;28;4793;-52
2021/11/12 00:16:45;;;;;;;35.83;26.10;;;;;;;0.06;96.96;101581.69;683185;28;1184;-52
2021/11/12 00:17:09;;;;;;;37.88;26.23;;;;;;;0.14;96.57;101582.13;681846;28;1120;-54
2021/11/12 00:17:34;;;;;;;37.20;25.48;;;;;;;0.22;96.24;101567.94;680994;28;3224;-51
2021/11/12 00:17:55;;;;;;;35.65;25.98;;;;;;;0.16;95.71;101571.06;682451;28;1460;-51
2021/11/12 00:18:17;;;;;;;35.20;25.73;;;;;;;0.11;95.53;101579.34;681316;28;1538;-52
2021/11/12 00:18:39;;;;;;;36.38;25.70;;;;;;;0.09;95.65;101570.69;679904;28;1186;-55
2021/11/12 00:18:59;;;;;;;36.42;26.10;;;;;;;0.11;95.73;101577.69;680522;28;4391;-52
2021/11/12 00:19:20;;;;;;;36.10;26.03;;;;;;;0.12;95.88;101576.00;680551;28;1101;-51
2021/11/12 00:19:40;;;;;;;33.60;25.83;;;;;;;0.12;95.90;101588.84;682257;28;1333;-54
2021/11/12 00:20:02;;;;;;;34.90;26.07;;;;;;;0.12;95.93;101584.56;673834;29;1371;-51
2021/11/12 00:20:22;;;;;;;39.28;26.77;;;;;;;0.10;96.29;101578.47;675389;29;3371;-53
2021/11/12 00:20:44;;;;;;;37.92;26.85;;;;;;;0.12;96.26;101576.00;675582;29;3633;-53
2021/11/12 00:21:05;;;;;;;38.35;26.63;;;;;;;0.10;96.17;101578.47;676323;29;1922;-54
2021/11/12 00:21:25;;;;;;;39.25;26.85;;;;;;;0.08;96.21;101586.91;675379;29;1068;-53
2021/11/12 00:21:46;;;;;;;38.37;26.47;;;;;;;0.09;96.27;101584.41;676862;29;1124;-53
2021/11/12 00:22:07;;;;;;;38.05;26.55;;;;;;;0.07;96.33;101587.72;679204;29;4643;-52
2021/11/12 00:22:28;;;;;;;37.67;26.67;;;;;;;0.06;96.00;101585.97;679838;29;1143;-53
2021/11/12 00:22:49;;;;;;;38.88;27.13;;;;;;;0.04;96.14;101580.72;676445;29;1133;-51
2021/11/12 00:23:11;;;;;;;38.05;27.17;;;;;;;0.04;95.94;101580.72;679364;29;1280;-52
2021/11/12 00:23:33;;;;;;;35.80;26.25;;;;;;;0.04;95.73;101583.28;676112;29;3024;-52
2021/11/12 00:23:54;;;;;;;38.70;26.55;;;;;;;0.03;95.58;101585.78;677707;29;3496;-53
2021/11/12 00:24:15;;;;;;;38.77;26.77;;;;;;;0.01;95.95;101582.25;678763;29;1235;-50
2021/11/12 00:24:36;;;;;;;37.78;26.25;;;;;;;-0.02;96.15;101582.97;681019;28;1355;-51
2021/11/12 00:24:59;;;;;;;37.17;26.98;;;;;;;-0.04;96.56;101584.59;682999;28;1232;-53
2021/11/12 00:25:22;;;;;;;37.47;26.20;;;;;;;-0.04;96.63;101584.59;680749;28;4948;-52
2021/11/12 00:25:42;;;;;;;37.38;26.50;;;;;;;-0.06;96.89;101581.03;678451;29;1096;-52
2021/11/12 00:26:04;;;;;;;37.13;26.07;;;;;;;-0.09;96.75;101581.75;677801;29;1128;-52
2021/11/12 00:26:24;;;;;;;37.88;26.48;;;;;;;-0.11;97.13;101579.91;678777;29;3292;-55
2021/11/12 00:26:45;;;;;;;36.00;26.63;;;;;;;-0.16;96.68;101578.81;678347;29;4569;-52
2021/11/12 00:27:06;;;;;;;37.33;26.33;;;;;;;-0.19;96.49;101579.50;677302;29;1535;-51
2021/11/12 00:27:29;;;;;;;38.13;26.23;;;;;;;-0.21;96.79;101576.88;679822;29;1116;-53
2021/11/12 00:27:49;;;;;;;37.75;27.05;;;;;;;-0.18;96.99;101581.25;680976;28;1239;-54
2021/11/12 00:28:14;;;;;;;37.97;27.20;;;;;;;-0.15;97.47;101577.97;678375;29;4766;-52
2021/11/12 00:28:39;;;;;;;38.35;26.98;;;;;;;-0.19;97.32;101579.50;678205;29;1355;-49
2021/11/12 00:29:01;;;;;;;38.47;27.23;;;;;;;-0.19;97.42;101576.94;679060;29;1280;-49
2021/11/12 00:29:22;;;;;;;37.72;26.73;;;;;;;-0.19;97.14;101574.38;676013;29;1856;-50
2021/11/12 00:29:48;;;;;;;37.40;27.00;;;;;;;-0.24;96.90;101575.81;675641;29;4034;-49
2021/11/12 00:30:54;;;;;;;38.90;26.15;;;;;;;-0.22;97.44;101575.09;676459;29;1342;-50
2021/11/12 00:31:42;;;;;;;36.53;26.90;;;;;;;-0.17;97.25;101580.47;678120;29;5114;-52
2021/11/12 00:32:15;;;;;;;37.55;25.83;;;;;;;-0.16;97.53;101579.66;677847;29;1326;-53
2021/11/12 00:33:33;;;;;;;37.83;26.87;;;;;;;-0.27;97.36;101575.66;681384;28;1135;-52
2021/11/12 00:34:32;;;;;;;37.17;25.95;;;;;;;-0.22;97.46;101580.22;681849;28;1173;-50
2021/11/12 00:35:19;;;;;;;35.50;25.17;;;;;;;-0.20;96.99;101575.16;682632;28;2089;-50
2021/11/12 00:37:05;;;;;;;35.47;26.05;;;;;;;-0.24;97.20;101571.53;682145;28;1143;-49
2021/11/12 00:38:08;;;;;;;38.10;26.60;;;;;;;-0.33;97.77;101572.72;680574;28;1622;-52
2021/11/12 00:38:39;;;;;;;37.60;26.13;;;;;;;-0.36;97.96;101578.59;681217;28;2090;-52
2021/11/12 00:39:11;;;;;;;37.80;27.13;;;;;;;-0.36;98.04;101565.72;682004;28;1000;-52
2021/11/12 00:40:16;;;;;;;35.80;25.83;;;;;;;-0.27;97.46;101573.94;676329;29;1441;-54
2021/11/12 00:40:48;;;;;;;37.70;26.65;;;;;;;-0.31;97.68;101563.44;676111;29;5784;-49
2021/11/12 00:42:10;;;;;;;35.80;25.60;;;;;;;-0.23;97.52;101572.44;683328;28;1178;-52
2021/11/12 00:43:53;;;;;;;35.63;24.80;;;;;;;-0.23;96.77;101567.31;680479;28;1120;-52
2021/11/12 00:44:19;;;;;;;33.70;23.98;;;;;;;-0.25;96.84;101568.88;681133;28;3422;-55
2021/11/12 00:45:03;;;;;;;34.27;24.03;;;;;;;-0.19;96.89;101575.25;682785;28;1277;-53
2021/11/12 00:45:25;;;;;;;33.97;23.75;;;;;;;-0.21;96.85;101570.81;681301;28;1076;-55
2021/11/12 00:45:49;;;;;;;35.90;24.73;;;;;;;-0.27;97.03;101563.66;681590;28;1097;-50
2021/11/12 00:46:25;;;;;;;37.35;25.73;;;;;;;-0.36;96.80;101558.94;680917;28;5214;-51
2021/11/12 00:46:52;;;;;;;36.80;25.70;;;;;;;-0.37;97.32;101561.41;681714;28;1085;-52
2021/11/12 00:47:25;;;;;;;36.70;25.83;;;;;;;-0.36;97.06;101560.59;681148;28;2084;-50
2021/11/12 00:48:38;;;;;;;34.50;25.30;;;;;;;-0.44;97.51;101561.91;682031;28;1230;-51
2021/11/12 00:49:04;;;;;;;35.85;25.10;;;;;;;-0.44;98.07;101561.91;680905;28;4593;-49
2021/11/12 00:49:28;;;;;;;36.33;25.55;;;;;;;-0.33;97.88;101559.88;682528;28;1049;-51
2021/11/12 00:50:40;;;;;;;33.55;24.83;;;;;;;-0.29;96.64;101559.25;680848;28;2196;-52
2021/11/12 00:52:06;;;;;;;37.17;26.77;;;;;;;-0.54;97.08;101560.47;678820;29;1237;-51
2021/11/12 00:53:51;;;;;;;35.85;25.52;;;;;;;-0.39;96.89;101563.00;680631;28;1583;-50
2021/11/12 00:54:17;;;;;;;35.17;25.70;;;;;;;-0.53;97.07;101567.41;682933;28;1324;-53
2021/11/12 00:54:38;;;;;;;35.10;25.45;;;;;;;-0.54;96.52;101565.63;681112;28;1302;-51
2021/11/12 00:54:58;;;;;;;35.30;25.73;;;;;;;-0.46;96.95;101566.06;680990;28;4793;-50
2021/11/12 00:55:24;;;;;;;35.67;25.27;;;;;;;-0.38;97.44;101562.22;682426;28;1275;-52
2021/11/12 00:55:45;;;;;;;33.85;24.27;;;;;;;-0.35;97.26;101570.97;680308;28;1177;-51
2021/11/12 00:56:06;;;;;;;35.58;25.60;;;;;;;-0.39;97.36;101561.34;682824;28;3781;-50
2021/11/12 00:56:29;;;;;;;36.22;25.48;;;;;;;-0.41;97.41;101562.06;679876;29;1346;-51
2021/11/12 00:56:51;;;;;;;36.88;25.88;;;;;;;-0.42;97.74;101571.44;677914;29;1339;-49
2021/11/12 00:57:12;;;;;;;36.67;25.00;;;;;;;-0.47;97.48;101562.59;676219;29;1231;-51
2021/11/12 00:57:32;;;;;;;37.83;26.10;;;;;;;-0.50;97.80;101570.13;675762;29;1312;-52
2021/11/12 00:57:54;;;;;;;37.63;25.98;;;;;;;-0.46;97.63;101566.91;676677;29;1203;-50
2021/11/12 00:58:16;;;;;;;35.35;25.02;;;;;;;-0.43;97.89;101564.53;674575;29;4949;-53
2021/11/12 00:58:36;;;;;;;36.67;26.58;;;;;;;-0.41;97.57;101567.19;677468;29;1065;-51
2021/11/12 00:58:59;;;;;;;36.30;25.88;;;;;;;-0.37;97.57;101562.28;675940;29;3150;-50
2021/11/12 00:59:20;;;;;;;34.92;25.02;;;;;;;-0.30;97.94;101560.94;680402;28;3381;-52
2021/11/12 00:59:41;;;;;;;34.53;25.13;;;;;;;-0.17;97.61;101562.47;681745;28;1381;-50
2021/11/12 01:00:07;;;;;;;35.47;25.05;;;;;;;-0.21;96.78;101563.13;679716;28;1401;-51
2021/11/12 01:00:27;;;;;;;35.22;25.15;;;;;;;-0.29;96.34;101559.25;681521;28;1337;-49
2021/11/12 01:00:48;;;;;;;34.97;24.67;;;;;;;-0.26;96.71;101564.56;681160;28;1065;-50
2021/11/12 01:01:09;;;;;;;34.07;24.23;;;;;;;-0.21;96.54;101566.59;680474;28;4361;-52
2021/11/12 01:01:32;;;;;;;33.87;24.30;;;;;;;-0.22;96.45;101563.94;682801;28;1158;-51
2021/11/12 01:01:53;;;;;;;35.10;24.38;;;;;;;-0.33;96.64;101560.78;681427;28;3263;-51
2021/11/12 01:02:13;;;;;;;36.88;25.50;;;;;;;-0.35;96.43;101568.41;682496;28;2099;-49
2021/11/12 01:02:34;;;;;;;35.63;24.90;;;;;;;-0.29;96.78;101559.25;682164;28;1258;-51
2021/11/12 01:02:55;;;;;;;34.30;24.45;;;;;;;-0.16;96.67;101564.25;679839;28;1137;-51
2021/11/12 01:03:18;;;;;;;34.28;24.92;;;;;;;-0.09;96.57;101556.06;683335;28;997;-52
2021/11/12 01:03:39;;;;;;;34.63;24.30;;;;;;;-0.07;96.17;101559.59;682062;28;1382;-50
2021/11/12 01:04:00;;;;;;;33.90;23.90;;;;;;;0.01;95.69;101561.69;681355;28;4664;-49
2021/11/12 01:04:22;;;;;;;32.00;23.98;;;;;;;-0.02;95.64;101560.72;682398;28;1010;-53
2021/11/12 01:04:42;;;;;;;33.53;24.25;;;;;;;-0.10;95.24;101559.41;682076;28;937;-53
2021/11/12 01:05:04;;;;;;;35.90;24.40;;;;;;;-0.14;95.83;101557.50;681098;28;3289;-50
2021/11/12 01:05:25;;;;;;;35.55;24.50;;;;;;;-0.10;95.59;101556.84;681574;28;3510;-52
2021/11/12 01:05:46;;;;;;;34.90;24.70;;;;;;;-0.03;95.75;101555.50;681030;28;1283;-50
2021/11/12 01:06:06;;;;;;;35.77;24.47;;;;;;;-0.06;95.98;101563.06;678707;29;1493;-52
2021/11/12 01:06:27;;;;;;;35.20;24.42;;;;;;;-0.10;95.92;101553.41;679245;29;1335;-50
2021/11/12 01:06:49;;;;;;;33.85;24.10;;;;;;;-0.14;95.80;101554.91;679401;29;1089;-49
2021/11/12 01:07:09;;;;;;;32.60;24.08;;;;;;;-0.16;95.80;101559.09;678249;28;5058;-51
2021/11/12 01:07:30;;;;;;;33.10;23.48;;;;;;;-0.13;96.20;101554.13;680103;29;1183;-50
2021/11/12 01:07:51;;;;;;;34.17;23.75;;;;;;;-0.13;95.29;101558.41;679732;29;3152;-50
2021/11/12 01:08:12;;;;;;;33.85;24.27;;;;;;;-0.14;95.71;101551.47;681506;28;2219;-51
2021/11/12 01:08:33;;;;;;;33.10;23.60;;;;;;;-0.11;95.84;101549.06;682467;28;2312;-50
2021/11/12 01:08:53;;;;;;;32.25;23.83;;;;;;;-0.14;95.73;101556.63;681927;28;1139;-49
2021/11/12 01:09:17;;;;;;;31.73;23.65;;;;;;;-0.20;95.58;101558.06;681658;28;1210;-52
2021/11/12 01:09:37;;;;;;;32.28;23.88;;;;;;;-0.21;95.76;101555.41;680827;28;1471;-50
2021/11/12 01:09:59;;;;;;;34.42;24.02;;;;;;;-0.19;96.00;101558.97;682129;28;4653;-51
2021/11/12 01:10:20;;;;;;;34.95;24.10;;;;;;;-0.20;95.54;101558.06;683031;28;1408;-50
2021/11/12 01:10:40;;;;;;;31.55;23.38;;;;;;;-0.20;95.61;101562.31;677107;29;1288;-51
2021/11/12 01:11:01;;;;;;;33.47;23.40;;;;;;;-0.22;95.86;101554.53;676168;29;3605;-51
2021/11/12 01:11:23;;;;;;;36.10;24.70;;;;;;;-0.28;95.76;101553.31;678094;29;1329;-53
2021/11/12 01:11:46;;;;;;;35.95;25.45;;;;;;;-0.34;96.36;101553.88;675902;29;1533;-50
2021/11/12 01:12:07;;;;;;;34.25;24.67;;;;;;;-0.38;96.17;101557.94;676303;29;1358;-49
2021/11/12 01:12:29;;;;;;;34.75;24.25;;;;;;;-0.43;96.30;101559.41;675530;29;1267;-51
2021/11/12 01:12:49;;;;;;;35.03;24.20;;;;;;;-0.40;96.28;101551.84;677536;29;1357;-50
2021/11/12 01:13:10;;;;;;;34.75;24.65;;;;;;;-0.46;96.56;101560.91;678296;28;4438;-52
2021/11/12 01:13:30;;;;;;;34.17;24.93;;;;;;;-0.54;96.79;101558.81;680585;28;970;-50
2021/11/12 01:13:51;;;;;;;35.42;24.80;;;;;;;-0.58;96.88;101558.53;681405;28;3153;-51
2021/11/12 01:14:15;;;;;;;37.87;25.80;;;;;;;-0.63;97.08;101562.56;681145;28;4005;-52
2021/11/12 01:14:36;;;;;;;35.05;25.00;;;;;;;-0.68;96.62;101559.72;680706;28;1023;-50
2021/11/12 01:14:57;;;;;;;33.10;24.27;;;;;;;-0.62;97.34;101559.16;682631;28;1236;-50
2021/11/12 01:15:19;;;;;;;34.87;24.63;;;;;;;-0.46;97.25;101550.63;682638;28;1057;-49
2021/11/12 01:15:40;;;;;;;36.50;24.60;;;;;;;-0.32;97.15;101556.53;681586;28;1219;-50
2021/11/12 01:16:00;;;;;;;36.20;24.57;;;;;;;-0.31;96.50;101555.72;681888;28;4379;-54
2021/11/12 01:16:21;;;;;;;33.42;24.40;;;;;;;-0.36;96.29;101558.03;678874;29;1216;-51
2021/11/12 01:16:43;;;;;;;31.58;23.85;;;;;;;-0.40;96.28;101557.00;679535;29;3843;-51
2021/11/12 01:17:04;;;;;;;35.20;24.45;;;;;;;-0.45;96.42;101561.00;678037;29;3489;-50
2021/11/12 01:17:24;;;;;;;35.38;24.95;;;;;;;-0.47;96.55;101556.56;676067;29;1658;-49
2021/11/12 01:17:45;;;;;;;36.90;24.80;;;;;;;-0.49;96.91;101551.34;676415;29;1345;-51
2021/11/12 01:18:05;;;;;;;37.00;24.95;;;;;;;-0.55;97.42;101561.31;679354;28;1259;-50
2021/11/12 01:18:25;;;;;;;35.50;24.77;;;;;;;-0.56;97.16;101556.97;681872;28;1040;-50
2021/11/12 01:18:47;;;;;;;35.13;24.25;;;;;;;-0.58;97.53;101558.53;680839;28;1168;-50
2021/11/12 01:19:08;;;;;;;35.53;24.83;;;;;;;-0.59;97.62;101556.78;680862;28;4807;-51
2021/11/12 01:19:28;;;;;;;35.67;24.75;;;;;;;-0.57;97.60;101557.75;680905;28;1362;-50
2021/11/12 01:19:49;;;;;;;35.88;24.50;;;;;;;-0.50;97.39;101556.41;682014;28;1834;-49
2021/11/12 01:20:15;;;;;;;34.58;24.38;;;;;;;-0.48;97.19;101550.56;682053;28;1315;-52
2021/11/12 01:20:36;;;;;;;32.17;23.40;;;;;;;-0.49;97.33;101550.47;681178;28;1060;-49
2021/11/12 01:20:57;;;;;;;34.07;23.43;;;;;;;-0.52;97.50;101551.19;682564;28;1080;-51
2021/11/12 01:21:19;;;;;;;34.30;24.25;;;;;;;-0.55;97.14;101553.59;681976;28;1967;-49
2021/11/12 01:21:40;;;;;;;33.83;24.35;;;;;;;-0.60;97.41;101558.47;680454;28;1199;-53
2021/11/12 01:22:01;;;;;;;35.05;24.58;;;;;;;-0.62;97.63;101556.59;681651;28;4493;-51
2021/11/12 01:22:22;;;;;;;34.30;24.27;;;;;;;-0.62;97.52;101556.59;681747;28;1086;-50
2021/11/12 01:22:43;;;;;;;35.17;24.90;;;;;;;-0.62;97.10;101546.34;681611;28;3259;-50
2021/11/12 01:23:05;;;;;;;35.00;24.55;;;;;;;-0.54;97.67;101547.63;681169;28;3493;-49
2021/11/12 01:23:25;;;;;;;33.70;23.98;;;;;;;-0.37;97.31;101540.88;681541;28;1580;-50
2021/11/12 01:23:49;;;;;;;32.23;23.60;;;;;;;-0.27;97.03;101543.13;679613;29;1492;-51
2021/11/12 01:24:11;;;;;;;33.00;23.95;;;;;;;-0.21;96.05;101543.47;678882;29;1200;-51
2021/11/12 01:24:31;;;;;;;33.45;24.05;;;;;;;-0.25;96.09;101544.09;678462;29;1244;-49
2021/11/12 01:24:51;;;;;;;32.30;23.33;;;;;;;-0.33;95.95;101535.09;678743;29;1315;-53
2021/11/12 01:25:14;;;;;;;31.57;22.40;;;;;;;-0.41;96.04;101534.66;679230;29;4674;-52
2021/11/12 01:25:35;;;;;;;32.60;23.50;;;;;;;-0.46;95.97;101542.94;679007;28;1084;-53
2021/11/12 01:25:55;;;;;;;32.97;23.97;;;;;;;-0.49;96.17;101540.19;677975;29;3941;-52
2021/11/12 01:26:18;;;;;;;33.15;23.33;;;;;;;-0.46;96.63;101541.22;678495;29;1589;-51
2021/11/12 01:26:39;;;;;;;33.75;23.80;;;;;;;-0.42;96.73;101540.59;677266;29;1091;-51
2021/11/12 01:26:59;;;;;;;33.85;23.80;;;;;;;-0.36;96.17;101540.03;678093;29;1093;-49
2021/11/12 01:27:20;;;;;;;33.37;23.93;;;;;;;-0.39;96.58;101545.03;678585;29;1244;-52
2021/11/12 01:27:42;;;;;;;34.55;24.00;;;;;;;-0.46;96.37;101540.38;678099;28;1318;-51
2021/11/12 01:28:03;;;;;;;33.60;23.92;;;;;;;-0.50;97.27;101535.84;680462;28;4364;-50
2021/11/12 01:28:23;;;;;;;33.28;23.65;;;;;;;-0.47;97.45;101541.16;680735;28;1352;-51
2021/11/12 01:28:44;;;;;;;34.30;23.17;;;;;;;-0.35;97.02;101541.81;680955;28;3249;-51
2021/11/12 01:29:04;;;;;;;32.70;23.23;;;;;;;-0.31;96.34;101530.03;675284;29;1484;-51
2021/11/12 01:29:24;;;;;;;34.60;23.90;;;;;;;-0.33;96.60;101540.22;676036;29;1443;-50
2021/11/12 01:29:45;;;;;;;35.03;24.03;;;;;;;-0.35;95.89;101540.16;673029;29;1198;-51
2021/11/12 01:30:07;;;;;;;33.87;23.93;;;;;;;-0.45;96.30;101540.44;673177;29;1062;-49
2021/11/12 01:30:27;;;;;;;35.83;24.20;;;;;;;-0.52;96.46;101535.78;673574;29;1182;-50
2021/11/12 01:30:48;;;;;;;35.57;24.00;;;;;;;-0.55;96.92;101545.91;673392;29;1232;-50
2021/11/12 01:31:09;;;;;;;33.85;23.10;;;;;;;-0.55;96.73;101541.63;677922;29;5859;-53
2021/11/12 01:31:31;;;;;;;34.17;23.88;;;;;;;-0.55;96.96;101540.75;679272;29;1287;-49
2021/11/12 01:31:52;;;;;;;34.05;24.08;;;;;;;-0.54;96.96;101534.78;682691;28;1378;-49
2021/11/12 01:32:22;;;;;;;34.77;24.77;;;;;;;-0.57;96.96;101544.91;681739;28;1259;-50
2021/11/12 01:32:43;;;;;;;32.65;23.73;;;;;;;-0.58;97.56;101538.00;681023;28;1151;-49
2021/11/12 01:33:05;;;;;;;33.20;24.02;;;;;;;-0.53;97.33;101541.72;677959;29;1280;-52
2021/11/12 01:33:28;;;;;;;32.03;23.23;;;;;;;-0.43;97.29;101543.09;676644;29;1219;-50
2021/11/12 01:33:48;;;;;;;31.98;22.88;;;;;;;-0.36;96.82;101540.03;677745;29;1085;-51
2021/11/12 01:34:10;;;;;;;30.40;22.35;;;;;;;-0.32;97.04;101534.25;678186;28;4683;-53
2021/11/12 01:34:30;;;;;;;31.25;22.92;;;;;;;-0.35;96.81;101542.72;678888;29;1968;-51
2021/11/12 01:34:54;;;;;;;30.73;22.40;;;;;;;-0.35;96.36;101537.59;679351;28;3858;-49
2021/11/12 01:35:17;;;;;;;30.88;22.65;;;;;;;-0.37;96.23;101544.31;682008;28;1284;-52
2021/11/12 01:35:38;;;;;;;34.13;23.42;;;;;;;-0.40;96.31;101540.69;681295;28;1181;-50
2021/11/12 01:36:09;;;;;;;31.10;22.83;;;;;;;-0.42;96.62;101543.16;681918;28;1081;-50
2021/11/12 01:36:37;;;;;;;32.83;22.83;;;;;;;-0.51;96.62;101545.25;681682;28;1283;-51
2021/11/12 01:36:59;;;;;;;32.50;22.77;;;;;;;-0.54;97.04;101545.06;679605;29;1196;-50
2021/11/12 01:37:21;;;;;;;33.53;24.15;;;;;;;-0.54;97.33;101545.06;679012;29;4858;-51
2021/11/12 01:37:44;;;;;;;34.33;23.42;;;;;;;-0.55;97.54;101548.47;679239;29;3799;-50
2021/11/12 01:38:07;;;;;;;34.30;23.25;;;;;;;-0.50;97.01;101552.13;681126;28;1470;-49
2021/11/12 01:38:28;;;;;;;33.55;23.15;;;;;;;-0.48;97.21;101550.56;681333;28;1342;-49
2021/11/12 01:38:50;;;;;;;32.05;22.90;;;;;;;-0.49;96.95;101546.22;681624;28;1247;-51
2021/11/12 01:39:20;;;;;;;32.22;23.15;;;;;;;-0.50;96.86;101551.28;681789;28;3760;-50
2021/11/12 01:39:40;;;;;;;34.00;23.70;;;;;;;-0.51;97.28;101550.41;680596;28;1278;-49
2021/11/12 01:40:06;;;;;;;33.10;23.10;;;;;;;-0.51;96.94;101550.41;680715;28;4370;-53
2021/11/12 01:40:28;;;;;;;33.22;22.92;;;;;;;-0.51;97.44;101555.53;678913;29;3215;-52
2021/11/12 01:40:49;;;;;;;32.80;23.40;;;;;;;-0.54;97.28;101547.63;677975;29;3737;-51
2021/11/12 01:41:10;;;;;;;32.60;23.37;;;;;;;-0.55;97.00;101543.31;680676;28;1914;-51
2021/11/12 01:41:31;;;;;;;35.20;23.63;;;;;;;-0.56;97.28;101551.81;681688;28;1262;-50
2021/11/12 01:41:58;;;;;;;36.10;23.52;;;;;;;-0.56;97.27;101557.84;681088;28;1271;-53
2021/11/12 01:42:21;;;;;;;30.85;22.58;;;;;;;-0.58;96.99;101554.31;684504;28;1187;-53
2021/11/12 01:42:57;;;;;;;32.78;23.02;;;;;;;-0.64;97.28;101550.50;684485;28;1413;-49
2021/11/12 01:43:23;;;;;;;34.58;23.67;;;;;;;-0.69;97.59;101552.84;681012;28;4456;-51
2021/11/12 01:43:48;;;;;;;34.60;23.75;;;;;;;-0.69;97.96;101555.41;681762;28;3636;-54
2021/11/12 01:44:10;;;;;;;32.90;22.58;;;;;;;-0.64;97.89;101547.94;682325;28;1440;-53
2021/11/12 01:44:37;;;;;;;32.50;22.75;;;;;;;-0.65;97.85;101543.59;679418;29;1052;-52
2021/11/12 01:45:05;;;;;;;31.85;23.00;;;;;;;-0.66;97.84;101555.56;678609;29;1083;-50
2021/11/12 01:45:35;;;;;;;31.38;22.10;;;;;;;-0.67;97.97;101548.66;680173;29;1219;-50
2021/11/12 01:46:52;;;;;;;34.28;23.60;;;;;;;-0.72;97.77;101550.97;680515;28;4813;-52
2021/11/12 01:47:37;;;;;;;35.50;24.20;;;;;;;-0.64;98.18;101547.94;682269;28;1277;-49
2021/11/12 01:48:13;;;;;;;33.45;23.10;;;;;;;-0.62;97.79;101546.34;682291;28;1280;-50
2021/11/12 01:50:02;;;;;;;32.92;22.92;;;;;;;-0.65;97.61;101546.16;683269;28;4452;-50
2021/11/12 01:50:25;;;;;;;32.88;22.85;;;;;;;-0.64;97.82;101547.94;683503;28;1219;-53
2021/11/12 01:50:54;;;;;;;33.08;23.25;;;;;;;-0.69;97.96;101543.44;681709;28;1121;-51
2021/11/12 01:52:25;;;;;;;33.55;22.90;;;;;;;-0.70;97.92;101539.09;682253;28;4731;-50
2021/11/12 01:52:46;;;;;;;35.58;23.73;;;;;;;-0.73;98.00;101544.06;681642;28;3601;-52
2021/11/12 01:53:10;;;;;;;35.45;23.63;;;;;;;-0.74;98.71;101536.28;682702;28;1248;-51
2021/11/12 01:53:45;;;;;;;34.42;24.98;;;;;;;-0.72;98.46;101532.09;682725;28;1339;-52
2021/11/12 01:54:47;;;;;;;33.92;23.92;;;;;;;-0.83;98.45;101536.66;679885;29;1156;-52
2021/11/12 01:56:20;;;;;;;34.63;23.88;;;;;;;-0.83;98.79;101531.53;681621;28;1157;-51
2021/11/12 01:57:50;;;;;;;33.60;23.90;;;;;;;-0.89;98.35;101537.22;686188;28;1469;-51
2021/11/12 01:59:23;;;;;;;36.38;25.17;;;;;;;-0.91;98.78;101530.22;682509;28;1188;-50
2021/11/12 01:59:46;;;;;;;35.80;24.83;;;;;;;-0.88;99.09;101532.97;678240;29;1331;-50
2021/11/12 02:00:12;;;;;;;35.70;25.02;;;;;;;-0.85;98.90;101530.56;678487;29;1256;-50
2021/11/12 02:00:32;;;;;;;35.92;25.73;;;;;;;-0.86;99.34;101531.34;678550;29;1117;-50
2021/11/12 02:00:53;;;;;;;36.22;24.90;;;;;;;-0.84;99.05;101528.84;677633;29;1151;-51
2021/11/12 02:01:13;;;;;;;35.38;24.60;;;;;;;-0.87;99.17;101530.47;673334;29;5003;-51
2021/11/12 02:01:42;;;;;;;34.93;24.67;;;;;;;-0.89;98.88;101526.03;673777;29;3536;-50
2021/11/12 02:02:09;;;;;;;34.92;24.48;;;;;;;-0.95;98.58;101528.28;673817;29;1164;-54
2021/11/12 02:02:29;;;;;;;34.47;24.13;;;;;;;-0.89;98.87;101526.03;674693;29;1276;-52
2021/11/12 02:02:50;;;;;;;34.50;24.63;;;;;;;-0.88;98.85;101526.13;676425;29;1330;-53
2021/11/12 02:03:10;;;;;;;35.10;25.02;;;;;;;-0.87;98.71;101521.91;680847;28;1263;-50
2021/11/12 02:03:30;;;;;;;35.57;24.53;;;;;;;-0.88;98.71;101522.69;679253;29;1503;-50
2021/11/12 02:03:51;;;;;;;35.88;24.67;;;;;;;-0.93;98.99;101522.44;679197;29;1029;-51
2021/11/12 02:04:18;;;;;;;35.10;24.03;;;;;;;-0.96;98.41;101513.69;678086;29;4950;-49
2021/11/12 02:04:38;;;;;;;36.40;24.63;;;;;;;-0.93;98.70;101516.41;679414;28;2318;-51
2021/11/12 02:04:59;;;;;;;36.85;25.02;;;;;;;-0.92;98.62;101523.31;678500;29;1489;-50
2021/11/12 02:05:19;;;;;;;33.40;23.70;;;;;;;-0.88;99.09;101522.69;679448;28;1068;-53
2021/11/12 02:05:40;;;;;;;33.97;23.35;;;;;;;-0.84;99.00;101514.34;681486;28;1274;-51
2021/11/12 02:06:00;;;;;;;35.87;24.13;;;;;;;-0.81;98.47;101513.66;681341;28;1291;-51
2021/11/12 02:06:21;;;;;;;34.08;23.98;;;;;;;-0.80;97.98;101510.25;682530;28;1214;-50
2021/11/12 02:06:42;;;;;;;35.65;24.00;;;;;;;-0.80;98.15;101520.53;681681;28;1419;-54
2021/11/12 02:07:04;;;;;;;33.92;23.52;;;;;;;-0.78;97.91;101513.81;682491;28;4838;-51
2021/11/12 02:07:25;;;;;;;33.22;23.65;;;;;;;-0.73;97.88;101507.25;682055;28;3338;-51
2021/11/12 02:07:46;;;;;;;32.53;23.08;;;;;;;-0.67;97.93;101507.56;681329;28;1486;-50
2021/11/12 02:08:10;;;;;;;31.40;22.23;;;;;;;-0.59;97.56;101510.56;682377;28;1267;-49
2021/11/12 02:08:30;;;;;;;31.63;22.48;;;;;;;-0.57;97.43;101516.66;682835;28;1115;-51
2021/11/12 02:08:51;;;;;;;33.00;22.90;;;;;;;-0.58;96.99;101513.22;682818;28;1137;-54
2021/11/12 02:09:18;;;;;;;33.25;22.73;;;;;;;-0.63;97.16;101511.19;681787;28;1259;-51
2021/11/12 02:09:39;;;;;;;33.10;22.98;;;;;;;-0.68;96.92;101513.50;681011;28;1207;-50
2021/11/12 02:10:03;;;;;;;33.15;22.60;;;;;;;-0.68;96.60;101510.94;682185;28;4644;-49
2021/11/12 02:10:25;;;;;;;33.25;22.95;;;;;;;-0.61;97.26;101507.91;681066;28;1886;-50
2021/11/12 02:10:46;;;;;;;32.95;23.13;;;;;;;-0.59;97.26;101510.56;683748;28;1025;-51
2021/11/12 02:11:06;;;;;;;32.17;22.73;;;;;;;-0.63;97.27;101509.50;681951;28;3454;-51
2021/11/12 02:11:27;;;;;;;31.37;22.73;;;;;;;-0.65;97.63;101517.91;682194;28;1169;-50
2021/11/12 02:11:50;;;;;;;33.75;23.52;;;;;;;-0.70;97.42;101509.97;681237;28;1290;-52
2021/11/12 02:12:47;;;;;;;31.55;22.98;;;;;;;-0.69;97.27;101504.91;680799;28;1191;-51
2021/11/12 02:13:18;;;;;;;33.30;23.40;;;;;;;-0.73;97.36;101502.97;680822;28;4378;-52
2021/11/12 02:13:41;;;;;;;31.38;22.98;;;;;;;-0.73;97.16;101502.97;679881;28;1543;-49
2021/11/12 02:14:02;;;;;;;32.97;23.13;;;;;;;-0.73;97.27;101502.97;680320;28;1235;-51
2021/11/12 02:14:24;;;;;;;33.97;23.80;;;;;;;-0.74;97.28;101497.78;680235;28;1249;-50
2021/11/12 02:14:47;;;;;;;33.05;22.83;;;;;;;-0.74;97.22;101498.66;683583;28;1886;-50
2021/11/12 02:15:08;;;;;;;32.97;23.02;;;;;;;-0.75;97.50;101499.47;683960;28;1313;-51
2021/11/12 02:15:29;;;;;;;32.65;22.30;;;;;;;-0.79;97.32;101496.63;684207;28;1256;-50
2021/11/12 02:15:50;;;;;;;34.22;23.02;;;;;;;-0.83;97.33;101499.81;681554;28;1134;-53
2021/11/12 02:16:21;;;;;;;31.77;22.65;;;;;;;-0.82;97.61;101496.47;677967;29;4557;-51
2021/11/12 02:16:47;;;;;;;34.22;23.35;;;;;;;-0.84;97.82;101496.38;676201;29;1478;-50
2021/11/12 02:17:14;;;;;;;32.10;22.73;;;;;;;-0.88;97.57;101497.88;678925;29;1156;-51